createdAt,value
2022-12-11T00:00:05.171Z,75.96
2022-12-11T00:05:26.899Z,76.50
2022-12-11T00:10:49.674Z,76.45
2022-12-11T00:16:11.729Z,76.92
2022-12-11T00:21:34.149Z,76.96
2022-12-11T00:26:56.070Z,77.92
2022-12-11T00:32:17.785Z,78.26
2022-12-11T00:37:39.576Z,77.55
2022-12-11T00:43:01.349Z,77.86
2022-12-11T00:48:23.096Z,77.21
2022-12-11T00:53:44.912Z,74.79
2022-12-11T00:59:06.760Z,74.85
2022-12-11T01:04:28.517Z,74.99
2022-12-11T01:10:08.724Z,74.75
2022-12-11T01:15:48.493Z,75.02
2022-12-11T01:21:13.284Z,75.47
2022-12-11T01:26:35.041Z,74.74
2022-12-11T01:31:56.845Z,73.31
2022-12-11T01:37:18.573Z,73.51
2022-12-11T01:42:40.566Z,73.89
2022-12-11T01:48:14.495Z,73.59
2022-12-11T01:53:43.380Z,74.53
2022-12-11T01:59:07.882Z,75.09
2022-12-11T02:04:30.943Z,74.69
2022-12-11T02:09:52.763Z,74.88
2022-12-11T02:15:26.490Z,75.45
2022-12-11T02:21:03.002Z,75.65
2022-12-11T02:26:58.864Z,74.40
2022-12-11T02:32:26.137Z,72.87
2022-12-11T02:37:51.768Z,72.86
2022-12-11T02:48:41.652Z,72.42
2022-12-11T02:54:06.773Z,71.35
2022-12-11T02:59:41.532Z,71.16
2022-12-11T03:05:03.673Z,70.25
2022-12-11T03:10:25.513Z,71.38
2022-12-11T03:15:59.098Z,71.05
2022-12-11T03:21:32.695Z,71.47
2022-12-11T03:26:57.319Z,71.63
2022-12-11T03:32:25.465Z,73.28
2022-12-11T03:37:49.794Z,72.87
2022-12-11T03:43:11.984Z,74.11
2022-12-11T03:48:38.110Z,74.73
2022-12-11T03:54:00.370Z,74.67
2022-12-11T03:59:22.458Z,74.90
2022-12-11T04:04:44.220Z,75.08
2022-12-11T04:10:06.098Z,74.76
2022-12-11T04:15:27.824Z,75.47
2022-12-11T04:21:08.443Z,75.64
2022-12-11T04:26:30.191Z,73.31
2022-12-11T04:31:51.954Z,70.94
2022-12-11T04:37:13.672Z,71.02
2022-12-11T04:42:35.557Z,70.16
2022-12-11T04:47:57.332Z,69.72
2022-12-11T04:53:19.341Z,69.98
2022-12-11T04:58:42.702Z,70.38
2022-12-11T05:04:04.550Z,68.99
2022-12-11T05:09:27.144Z,69.54
2022-12-11T05:14:52.963Z,68.46
2022-12-11T05:20:15.066Z,69.83
2022-12-11T05:25:36.942Z,69.21
2022-12-11T05:31:00.792Z,69.44
2022-12-11T05:36:32.046Z,69.86
2022-12-11T05:41:53.804Z,70.05
2022-12-11T05:47:15.520Z,70.18
2022-12-11T05:52:37.338Z,71.19
2022-12-11T05:57:59.077Z,71.54
2022-12-11T06:03:20.831Z,70.57
2022-12-11T06:08:42.796Z,71.75
2022-12-11T06:14:04.728Z,71.73
2022-12-11T06:19:26.471Z,72.83
2022-12-11T06:24:48.174Z,73.33
2022-12-11T06:30:10.459Z,74.53
2022-12-11T06:35:34.237Z,75.23
2022-12-11T06:41:02.580Z,76.00
2022-12-11T06:46:24.344Z,76.34
2022-12-11T06:51:46.133Z,77.24
2022-12-11T06:57:09.576Z,77.48
2022-12-11T07:02:31.704Z,77.69
2022-12-11T07:07:54.761Z,77.97
2022-12-11T07:13:16.633Z,77.64
2022-12-11T07:18:40.566Z,75.78
2022-12-11T07:24:02.503Z,76.14
2022-12-11T07:29:24.506Z,77.56
2022-12-11T07:34:51.571Z,76.68
2022-12-11T07:40:14.224Z,76.25
2022-12-11T07:45:35.991Z,76.76
2022-12-11T07:51:17.709Z,75.64
2022-12-11T07:56:43.657Z,75.58
2022-12-11T08:02:06.113Z,73.36
2022-12-11T08:07:27.897Z,74.11
2022-12-11T08:12:49.639Z,75.29
2022-12-11T08:18:11.410Z,74.44
2022-12-11T08:23:33.538Z,73.49
2022-12-11T08:28:56.018Z,72.26
2022-12-11T08:34:17.753Z,72.56
2022-12-11T08:39:39.713Z,73.66
2022-12-11T08:45:01.441Z,72.87
2022-12-11T08:50:23.235Z,72.50
2022-12-11T08:55:45.029Z,73.21
2022-12-11T09:01:13.671Z,74.77
2022-12-11T09:06:35.672Z,74.69
2022-12-11T09:11:57.448Z,75.83
2022-12-11T09:17:19.277Z,74.74
2022-12-11T09:22:42.804Z,75.23
2022-12-11T09:28:04.659Z,74.65
2022-12-11T09:33:26.469Z,74.65
2022-12-11T09:38:48.482Z,74.14
2022-12-11T09:44:28.701Z,74.18
2022-12-11T09:49:56.859Z,74.79
2022-12-11T09:55:24.702Z,73.26
2022-12-11T10:01:01.474Z,75.56
2022-12-11T10:06:35.790Z,74.96
2022-12-11T10:11:57.506Z,75.25
2022-12-11T10:17:23.427Z,75.39
2022-12-11T10:22:45.902Z,76.04
2022-12-11T10:28:16.067Z,76.77
2022-12-11T10:33:40.733Z,76.33
2022-12-11T10:39:04.074Z,76.73
2022-12-11T10:44:31.118Z,75.32
2022-12-11T10:49:52.811Z,75.45
2022-12-11T10:55:22.592Z,74.91
2022-12-11T11:00:45.883Z,75.66
2022-12-11T11:06:17.413Z,74.89
2022-12-11T11:11:39.643Z,75.01
2022-12-11T11:17:01.425Z,74.44
2022-12-11T11:22:23.271Z,73.99
2022-12-11T11:27:57.711Z,74.12
2022-12-11T11:33:22.325Z,74.19
2022-12-11T11:39:03.784Z,73.66
2022-12-11T11:44:32.075Z,74.42
2022-12-11T11:50:08.405Z,73.31
2022-12-11T11:55:53.899Z,72.10
2022-12-11T12:01:19.422Z,72.48
2022-12-11T12:06:57.833Z,73.03
2022-12-11T12:13:01.252Z,71.97
2022-12-11T12:18:23.022Z,71.49
2022-12-11T12:23:59.973Z,72.71
2022-12-11T12:29:40.495Z,76.00
2022-12-11T12:35:17.231Z,76.64
2022-12-11T12:40:55.987Z,79.60
2022-12-11T12:46:20.497Z,82.61
2022-12-11T12:51:44.357Z,80.88
2022-12-11T12:57:06.826Z,80.13
2022-12-11T13:02:29.833Z,79.11
2022-12-11T13:07:55.413Z,78.25
2022-12-11T13:13:32.565Z,78.53
2022-12-11T13:18:54.720Z,77.38
2022-12-11T13:24:26.043Z,78.32
2022-12-11T13:29:47.976Z,78.23
2022-12-11T13:35:16.321Z,77.45
2022-12-11T13:40:44.359Z,77.83
2022-12-11T13:46:11.309Z,79.58
2022-12-11T13:51:36.083Z,80.56
2022-12-11T13:56:57.843Z,79.03
2022-12-11T14:02:25.695Z,77.13
2022-12-11T14:07:57.227Z,77.92
2022-12-11T14:13:23.454Z,76.83
2022-12-11T14:18:45.405Z,75.81
2022-12-11T14:24:12.666Z,74.96
2022-12-11T14:29:34.394Z,77.11
2022-12-11T14:34:57.179Z,76.20
2022-12-11T14:40:22.572Z,76.29
2022-12-11T14:45:48.662Z,75.57
2022-12-11T14:51:14.987Z,76.00
2022-12-11T14:56:37.379Z,76.31
2022-12-11T15:02:02.090Z,76.79
2022-12-11T15:07:24.363Z,76.91
2022-12-11T15:12:46.473Z,74.68
2022-12-11T15:18:20.664Z,75.73
2022-12-11T15:23:54.573Z,76.64
2022-12-11T15:29:30.422Z,77.32
2022-12-11T15:34:56.307Z,76.82
2022-12-11T15:40:18.081Z,75.66
2022-12-11T15:45:39.866Z,75.42
2022-12-11T15:51:01.666Z,76.02
2022-12-11T15:56:23.478Z,75.29
2022-12-11T16:01:45.373Z,75.93
2022-12-11T16:07:16.498Z,75.32
2022-12-11T16:12:38.240Z,76.52
2022-12-11T16:18:06.013Z,77.94
2022-12-11T16:23:29.429Z,78.06
2022-12-11T16:28:51.178Z,78.50
2022-12-11T16:34:12.964Z,78.92
2022-12-11T16:39:36.916Z,79.85
2022-12-11T16:45:06.086Z,79.19
2022-12-11T16:50:27.834Z,80.44
2022-12-11T16:55:49.701Z,81.38
2022-12-11T17:01:12.896Z,81.87
2022-12-11T17:06:34.738Z,81.19
2022-12-11T17:11:56.518Z,79.67
2022-12-11T17:17:18.293Z,80.97
2022-12-11T17:22:40.145Z,80.79
2022-12-11T17:28:01.893Z,80.82
2022-12-11T17:33:24.101Z,80.70
2022-12-11T17:38:48.290Z,80.41
2022-12-11T17:44:10.401Z,81.05
2022-12-11T17:49:32.611Z,81.03
2022-12-11T17:54:54.375Z,80.29
2022-12-11T18:00:16.382Z,80.38
2022-12-11T18:05:46.675Z,80.21
2022-12-11T18:11:12.200Z,78.75
2022-12-11T18:16:36.773Z,78.68
2022-12-11T18:21:58.555Z,78.71
2022-12-11T18:27:20.308Z,79.61
2022-12-11T18:32:43.946Z,78.92
2022-12-11T18:38:05.895Z,79.32
2022-12-11T18:43:27.640Z,79.39
2022-12-11T18:48:50.648Z,78.28
2022-12-11T18:54:12.466Z,79.21
2022-12-11T18:59:34.358Z,80.14
2022-12-11T19:04:56.077Z,79.43
2022-12-11T19:10:17.886Z,79.65
2022-12-11T19:15:41.896Z,78.97
2022-12-11T19:21:09.475Z,80.48
2022-12-11T19:26:31.286Z,80.78
2022-12-11T19:31:55.122Z,81.26
2022-12-11T19:37:16.943Z,81.46
2022-12-11T19:42:38.696Z,83.12
2022-12-11T19:48:00.535Z,83.55
2022-12-11T19:53:22.353Z,81.73
2022-12-11T19:58:44.981Z,81.36
2022-12-11T20:04:10.213Z,80.83
2022-12-11T20:09:33.617Z,81.93
2022-12-11T20:14:55.405Z,82.66
2022-12-11T20:20:17.258Z,81.89
2022-12-11T20:25:40.380Z,81.10
2022-12-11T20:31:16.376Z,79.50
2022-12-11T20:36:41.523Z,79.80
2022-12-11T20:42:04.989Z,79.22
2022-12-11T20:47:26.789Z,78.48
2022-12-11T20:52:48.533Z,79.36
2022-12-11T20:58:11.441Z,78.85
2022-12-11T21:03:40.404Z,78.63
2022-12-11T21:09:07.070Z,78.65
2022-12-11T21:14:30.496Z,77.90
2022-12-11T21:19:52.632Z,77.79
2022-12-11T21:25:14.672Z,78.03
2022-12-11T21:30:40.113Z,78.77
2022-12-11T21:36:02.365Z,77.65
2022-12-11T21:41:25.036Z,77.18
2022-12-11T21:46:46.785Z,76.57
2022-12-11T21:52:09.221Z,77.81
2022-12-11T21:57:31.251Z,76.50
2022-12-11T22:02:53.103Z,76.85
2022-12-11T22:08:15.712Z,76.08
2022-12-11T22:13:37.587Z,76.70
2022-12-11T22:18:59.878Z,77.37
2022-12-11T22:24:21.602Z,76.81
2022-12-11T22:29:43.409Z,75.88
2022-12-11T22:35:05.457Z,75.48
2022-12-11T22:40:27.601Z,75.25
2022-12-11T22:45:49.448Z,74.89
2022-12-11T22:51:11.675Z,74.32
2022-12-11T22:56:33.419Z,75.57
2022-12-11T23:01:55.258Z,74.14
2022-12-11T23:07:16.994Z,74.03
2022-12-11T23:12:38.759Z,74.24
2022-12-11T23:18:00.550Z,74.18
2022-12-11T23:23:22.321Z,74.68
2022-12-11T23:28:45.073Z,74.40
2022-12-11T23:34:06.905Z,73.53
2022-12-11T23:39:28.861Z,73.32
2022-12-11T23:44:50.710Z,72.74
2022-12-11T23:50:12.461Z,72.91
2022-12-11T23:55:34.563Z,72.63
